createdAt,value
2019-04-22T00:01:32.388Z,9.83
2019-04-22T00:04:06.986Z,9.84
2019-04-22T00:06:51.821Z,9.67
2019-04-22T00:09:25.195Z,9.79
2019-04-22T00:12:01.817Z,9.66
2019-04-22T00:14:26.724Z,9.59
2019-04-22T00:16:58.528Z,9.46
2019-04-22T00:19:28.948Z,9.50
2019-04-22T00:22:03.137Z,9.45
2019-04-22T00:24:24.297Z,9.36
2019-04-22T00:26:59.998Z,9.32
2019-04-22T00:29:49.825Z,9.37
2019-04-22T00:32:05.246Z,9.20
2019-04-22T00:34:48.840Z,8.98
2019-04-22T00:37:17.219Z,8.94
2019-04-22T00:39:46.455Z,8.98
2019-04-22T00:42:21.402Z,9.08
2019-04-22T00:44:51.763Z,8.98
2019-04-22T00:47:23.447Z,8.72
2019-04-22T00:52:15.448Z,8.75
2019-04-22T00:54:55.702Z,8.85
2019-04-22T00:57:21.444Z,8.80
2019-04-22T00:59:54.826Z,8.75
2019-04-22T01:02:23.646Z,8.70
2019-04-22T01:04:57.550Z,8.61
2019-04-22T01:07:18.857Z,8.65
2019-04-22T01:09:52.075Z,8.36
2019-04-22T01:12:28.485Z,8.37
2019-04-22T01:14:57.227Z,8.29
2019-04-22T01:17:24.289Z,8.40
2019-04-22T01:19:56.310Z,8.23
2019-04-22T01:22:22.385Z,8.20
2019-04-22T01:24:50.312Z,8.11
2019-04-22T01:27:16.215Z,8.09
2019-04-22T01:29:46.903Z,8.01
2019-04-22T01:32:05.889Z,8.11
2019-04-22T01:34:46.075Z,7.99
2019-04-22T01:37:20.322Z,7.88
2019-04-22T01:39:58.334Z,7.92
2019-04-22T01:42:36.967Z,7.98
2019-04-22T01:44:59.601Z,8.17
2019-04-22T01:47:32.783Z,8.08
2019-04-22T01:49:59.867Z,8.04
2019-04-22T01:52:29.699Z,7.89
2019-04-22T01:55:06.659Z,7.99
2019-04-22T01:57:28.766Z,7.98
2019-04-22T01:59:59.059Z,7.91
2019-04-22T02:02:36.482Z,7.83
2019-04-22T02:05:05.712Z,7.90
2019-04-22T02:07:34.029Z,7.69
2019-04-22T02:10:04.025Z,7.72
2019-04-22T02:12:33.667Z,7.72
2019-04-22T02:15:07.898Z,7.70
2019-04-22T02:17:36.926Z,7.67
2019-04-22T02:20:07.213Z,7.68
2019-04-22T02:22:52.251Z,7.70
2019-04-22T02:25:09.348Z,7.77
2019-04-22T02:27:39.016Z,7.45
2019-04-22T02:30:05.418Z,7.33
2019-04-22T02:32:49.391Z,7.16
2019-04-22T02:35:11.173Z,7.30
2019-04-22T02:37:54.524Z,7.16
2019-04-22T02:40:09.578Z,7.24
2019-04-22T02:42:34.933Z,7.32
2019-04-22T02:45:07.177Z,7.35
2019-04-22T02:47:59.325Z,7.17
2019-04-22T02:53:00.881Z,7.16
2019-04-22T02:57:39.723Z,7.10
2019-04-22T03:00:29.422Z,7.29
2019-04-22T03:02:52.725Z,7.07
2019-04-22T03:05:21.618Z,7.03
2019-04-22T03:07:55.834Z,6.95
2019-04-22T03:10:38.488Z,7.19
2019-04-22T03:12:41.721Z,7.11
2019-04-22T03:15:34.989Z,7.05
2019-04-22T03:17:51.745Z,6.94
2019-04-22T03:20:11.139Z,6.95
2019-04-22T03:22:59.592Z,7.28
2019-04-22T03:27:38.784Z,6.99
2019-04-22T03:40:30.383Z,6.81
2019-04-22T03:42:55.954Z,6.92
2019-04-22T03:48:04.720Z,6.59
2019-04-22T03:50:25.931Z,6.55
2019-04-22T03:55:22.998Z,6.63
2019-04-22T04:00:41.650Z,6.53
2019-04-22T04:05:33.164Z,6.42
2019-04-22T04:07:57.716Z,6.26
2019-04-22T04:13:01.857Z,6.19
2019-04-22T04:15:24.841Z,6.49
2019-04-22T04:17:53.858Z,6.40
2019-04-22T04:22:58.965Z,6.48
2019-04-22T04:30:29.477Z,6.53
2019-04-22T04:35:30.494Z,6.57
2019-04-22T04:40:28.835Z,6.78
2019-04-22T04:42:54.142Z,6.68
2019-04-22T04:47:54.526Z,6.66
2019-04-22T04:50:27.335Z,6.64
2019-04-22T04:53:06.341Z,6.76
2019-04-22T04:55:34.881Z,6.66
2019-04-22T05:05:29.317Z,6.78
2019-04-22T05:07:55.356Z,6.59
2019-04-22T05:15:47.152Z,7.72
2019-04-22T05:17:57.795Z,7.98
2019-04-22T05:20:34.177Z,8.28
2019-04-22T05:22:51.077Z,8.84
2019-04-22T05:25:22.238Z,9.40
2019-04-22T05:27:50.889Z,9.57
2019-04-22T05:30:30.663Z,9.85
2019-04-22T05:32:58.010Z,10.11
2019-04-22T05:35:28.151Z,10.08
2019-04-22T05:37:57.737Z,10.28
2019-04-22T05:40:24.780Z,10.23
2019-04-22T05:42:56.572Z,10.56
2019-04-22T05:47:59.261Z,10.76
2019-04-22T05:50:24.735Z,10.92
2019-04-22T05:52:57.076Z,11.14
2019-04-22T05:55:33.211Z,11.30
2019-04-22T05:57:59.705Z,11.19
2019-04-22T06:03:07.197Z,11.43
2019-04-22T06:05:33.140Z,11.43
2019-04-22T06:08:02.136Z,11.68
2019-04-22T06:10:39.241Z,11.44
2019-04-22T06:13:00.897Z,11.18
2019-04-22T06:15:36.358Z,11.41
2019-04-22T06:18:16.133Z,11.54
2019-04-22T06:20:49.838Z,11.54
2019-04-22T06:23:19.283Z,11.50
2019-04-22T06:28:22.194Z,11.63
2019-04-22T06:30:54.669Z,11.57
2019-04-22T06:35:54.629Z,11.78
2019-04-22T06:43:20.121Z,12.03
2019-04-22T06:45:43.851Z,12.50
2019-04-22T06:48:23.631Z,12.41
2019-04-22T06:50:48.891Z,12.35
2019-04-22T06:53:16.832Z,12.65
2019-04-22T06:55:51.659Z,12.98
2019-04-22T06:58:34.946Z,13.24
2019-04-22T07:00:46.228Z,13.39
2019-04-22T07:03:39.889Z,13.44
2019-04-22T07:05:51.510Z,13.56
2019-04-22T07:10:50.814Z,15.14
2019-04-22T07:13:23.563Z,15.41
2019-04-22T07:16:08.902Z,15.65
2019-04-22T07:18:25.066Z,15.93
2019-04-22T07:20:57.825Z,16.07
2019-04-22T07:25:52.107Z,16.16
2019-04-22T07:28:20.221Z,16.27
2019-04-22T07:30:54.617Z,16.26
2019-04-22T07:36:12.607Z,16.28
2019-04-22T07:45:54.438Z,16.38
2019-04-22T07:48:35.762Z,16.37
2019-04-22T07:53:23.047Z,16.80
2019-04-22T07:56:00.187Z,16.75
2019-04-22T08:01:04.125Z,17.01
2019-04-22T08:03:54.150Z,17.25
2019-04-22T08:06:06.552Z,17.51
2019-04-22T08:11:30.923Z,17.57
2019-04-22T08:13:32.648Z,17.65
2019-04-22T08:23:37.946Z,18.02
2019-04-22T08:26:01.121Z,18.28
2019-04-22T08:28:40.758Z,18.35
2019-04-22T08:33:35.032Z,18.44
2019-04-22T08:36:10.853Z,18.52
2019-04-22T08:38:39.373Z,18.48
2019-04-22T08:41:23.050Z,18.60
2019-04-22T08:43:52.352Z,18.69
2019-04-22T08:46:25.312Z,18.83
2019-04-22T08:48:51.676Z,18.53
2019-04-22T08:51:22.267Z,18.86
2019-04-22T08:53:55.990Z,19.02
2019-04-22T08:56:29.600Z,18.87
2019-04-22T08:58:50.705Z,19.04
2019-04-22T09:03:52.690Z,19.34
2019-04-22T09:06:29.976Z,19.56
2019-04-22T09:08:55.320Z,19.75
2019-04-22T09:11:20.221Z,19.68
2019-04-22T09:16:27.975Z,20.11
2019-04-22T09:21:27.653Z,19.79
2019-04-22T09:23:55.667Z,19.95
2019-04-22T09:26:27.117Z,20.25
2019-04-22T09:31:19.046Z,20.14
2019-04-22T09:33:50.172Z,20.13
2019-04-22T09:38:46.818Z,20.18
2019-04-22T09:41:27.199Z,20.27
2019-04-22T09:46:32.871Z,20.60
2019-04-22T09:49:01.683Z,20.62
2019-04-22T09:51:29.127Z,20.87
2019-04-22T09:54:04.161Z,20.58
2019-04-22T09:56:23.804Z,21.11
2019-04-22T09:58:58.987Z,21.08
2019-04-22T10:04:03.720Z,21.09
2019-04-22T10:09:13.050Z,21.66
2019-04-22T10:16:35.479Z,21.76
2019-04-22T10:19:01.051Z,21.85
2019-04-22T10:21:37.179Z,21.99
2019-04-22T10:23:59.857Z,22.21
2019-04-22T10:26:34.900Z,22.22
2019-04-22T10:29:00.872Z,22.08
2019-04-22T10:31:44.787Z,22.36
2019-04-22T10:33:49.517Z,22.61
2019-04-22T10:36:05.897Z,22.15
2019-04-22T10:38:34.727Z,22.30
2019-04-22T10:41:04.769Z,22.13
2019-04-22T10:43:34.840Z,22.39
2019-04-22T10:46:04.168Z,22.30
2019-04-22T10:48:34.372Z,22.22
2019-04-22T10:51:04.459Z,22.26
2019-04-22T10:53:33.493Z,22.39
2019-04-22T10:56:03.235Z,22.42
2019-04-22T10:58:32.967Z,22.51
2019-04-22T11:01:01.623Z,22.37
2019-04-22T11:03:31.123Z,22.45
2019-04-22T11:06:01.248Z,22.55
2019-04-22T11:08:38.595Z,22.72
2019-04-22T11:11:16.239Z,22.47
2019-04-22T11:13:31.766Z,22.38
2019-04-22T11:16:00.623Z,22.42
2019-04-22T11:18:29.614Z,22.59
2019-04-22T11:20:59.746Z,22.69
2019-04-22T11:23:28.842Z,22.78
2019-04-22T11:25:59.562Z,22.86
2019-04-22T11:28:29.541Z,22.82
2019-04-22T11:30:58.697Z,22.73
2019-04-22T11:33:27.523Z,23.04
2019-04-22T11:35:56.012Z,23.05
2019-04-22T11:38:24.731Z,23.20
2019-04-22T11:40:55.484Z,23.31
2019-04-22T11:43:24.192Z,23.36
2019-04-22T11:45:53.368Z,23.44
2019-04-22T11:48:23.527Z,23.46
2019-04-22T11:50:52.063Z,23.61
2019-04-22T11:53:20.709Z,23.61
2019-04-22T11:55:50.735Z,23.77
2019-04-22T11:58:19.453Z,23.86
2019-04-22T12:00:49.478Z,23.89
2019-04-22T12:03:20.869Z,23.99
2019-04-22T12:05:49.954Z,24.10
2019-04-22T12:08:18.618Z,24.19
2019-04-22T12:10:54.232Z,23.78
2019-04-22T12:13:17.855Z,24.10
2019-04-22T12:15:46.882Z,24.12
2019-04-22T12:18:17.209Z,23.82
2019-04-22T12:20:47.182Z,23.56
2019-04-22T12:23:17.008Z,23.43
2019-04-22T12:25:52.501Z,23.50
2019-04-22T12:28:17.200Z,23.55
2019-04-22T12:30:45.883Z,23.67
2019-04-22T12:33:14.954Z,23.91
2019-04-22T12:35:44.402Z,23.85
2019-04-22T12:38:15.221Z,24.01
2019-04-22T12:40:51.867Z,23.90
2019-04-22T12:43:16.129Z,23.99
2019-04-22T12:45:44.743Z,23.99
2019-04-22T12:48:14.849Z,24.14
2019-04-22T12:50:45.918Z,24.20
2019-04-22T12:53:17.767Z,24.09
2019-04-22T12:55:44.290Z,24.00
2019-04-22T12:58:13.883Z,24.15
2019-04-22T13:00:42.829Z,23.81
2019-04-22T13:03:11.469Z,24.13
2019-04-22T13:05:40.984Z,24.32
2019-04-22T13:08:09.745Z,24.53
2019-04-22T13:10:45.605Z,24.47
2019-04-22T13:13:09.178Z,24.58
2019-04-22T13:15:39.115Z,24.54
2019-04-22T13:18:17.544Z,24.50
2019-04-22T13:20:38.683Z,24.31
2019-04-22T13:23:07.765Z,24.50
2019-04-22T13:25:36.731Z,24.41
2019-04-22T13:28:05.294Z,24.26
2019-04-22T13:30:34.674Z,24.37
2019-04-22T13:33:03.302Z,24.40
2019-04-22T13:35:31.980Z,24.50
2019-04-22T13:38:01.496Z,24.47
2019-04-22T13:40:30.791Z,24.69
2019-04-22T13:43:00.750Z,24.55
2019-04-22T13:45:29.824Z,24.65
2019-04-22T13:48:18.358Z,24.87
2019-04-22T13:51:00.962Z,24.78
2019-04-22T13:58:14.609Z,24.63
2019-04-22T14:00:32.038Z,24.63
2019-04-22T14:03:12.749Z,24.49
2019-04-22T14:05:42.984Z,24.37
2019-04-22T14:08:12.666Z,24.51
2019-04-22T14:10:42.808Z,24.38
2019-04-22T14:13:12.034Z,24.28
2019-04-22T14:15:42.256Z,24.25
2019-04-22T14:18:12.711Z,24.27
2019-04-22T14:20:42.819Z,24.31
2019-04-22T14:23:12.271Z,24.46
2019-04-22T14:25:43.024Z,24.40
2019-04-22T14:28:16.949Z,24.45
2019-04-22T14:30:42.509Z,24.49
2019-04-22T14:33:12.150Z,24.48
2019-04-22T14:35:41.607Z,24.49
2019-04-22T14:38:10.309Z,24.49
2019-04-22T14:40:40.960Z,24.40
2019-04-22T14:43:32.761Z,24.59
2019-04-22T14:46:12.249Z,24.71
2019-04-22T14:48:35.674Z,24.61
2019-04-22T14:51:00.893Z,24.73
2019-04-22T14:53:32.153Z,24.68
2019-04-22T14:55:42.250Z,24.49
2019-04-22T14:58:11.068Z,24.35
2019-04-22T15:00:40.015Z,24.22
2019-04-22T15:03:09.933Z,24.16
2019-04-22T15:05:40.026Z,24.09
2019-04-22T15:08:09.040Z,24.10
2019-04-22T15:10:38.154Z,24.01
2019-04-22T15:13:07.363Z,23.94
2019-04-22T15:15:43.601Z,23.91
2019-04-22T15:18:17.543Z,23.96
2019-04-22T15:20:54.276Z,23.78
2019-04-22T15:23:24.650Z,23.81
2019-04-22T15:25:54.657Z,23.73
2019-04-22T15:28:23.763Z,23.90
2019-04-22T15:30:53.251Z,23.77
2019-04-22T15:33:21.794Z,23.75
2019-04-22T15:35:51.530Z,23.76
2019-04-22T15:38:22.798Z,23.76
2019-04-22T15:40:50.463Z,23.78
2019-04-22T15:43:20.408Z,23.66
2019-04-22T15:45:50.786Z,23.70
2019-04-22T15:48:21.073Z,23.60
2019-04-22T15:50:50.751Z,23.54
2019-04-22T15:53:20.067Z,23.52
2019-04-22T15:55:48.742Z,23.46
2019-04-22T15:58:17.590Z,23.42
2019-04-22T16:00:57.635Z,23.42
2019-04-22T16:03:16.532Z,23.38
2019-04-22T16:05:46.100Z,23.29
2019-04-22T16:08:15.045Z,23.29
2019-04-22T16:10:43.965Z,23.26
2019-04-22T16:13:19.188Z,23.15
2019-04-22T16:15:42.942Z,23.18
2019-04-22T16:18:14.628Z,23.13
2019-04-22T16:20:41.743Z,23.09
2019-04-22T16:23:13.117Z,23.02
2019-04-22T16:25:53.642Z,23.05
2019-04-22T16:28:22.165Z,22.89
2019-04-22T16:30:51.133Z,22.66
2019-04-22T16:33:21.490Z,22.73
2019-04-22T16:35:50.857Z,22.57
2019-04-22T16:38:19.461Z,22.60
2019-04-22T16:40:48.644Z,22.51
2019-04-22T16:43:17.358Z,22.43
2019-04-22T16:45:45.879Z,22.41
2019-04-22T16:48:15.709Z,22.40
2019-04-22T16:50:46.602Z,22.24
2019-04-22T16:53:16.750Z,22.24
2019-04-22T16:55:46.643Z,22.23
2019-04-22T16:58:16.624Z,22.15
2019-04-22T17:00:46.944Z,22.05
2019-04-22T17:03:30.747Z,21.98
2019-04-22T17:06:19.451Z,21.91
2019-04-22T17:08:48.696Z,21.81
2019-04-22T17:11:17.929Z,21.80
2019-04-22T17:13:48.000Z,22.02
2019-04-22T17:16:18.049Z,22.11
2019-04-22T17:18:47.213Z,22.00
2019-04-22T17:21:17.397Z,21.83
2019-04-22T17:23:47.546Z,21.87
2019-04-22T17:26:16.691Z,21.82
2019-04-22T17:28:45.869Z,21.89
2019-04-22T17:31:14.506Z,21.55
2019-04-22T17:33:44.564Z,21.47
2019-04-22T17:36:14.050Z,21.36
2019-04-22T17:38:53.170Z,21.46
2019-04-22T17:41:24.369Z,21.49
2019-04-22T17:44:24.969Z,21.26
2019-04-22T17:46:33.652Z,21.01
2019-04-22T17:49:23.783Z,20.90
2019-04-22T17:52:15.645Z,20.84
2019-04-22T17:54:40.734Z,20.57
2019-04-22T17:57:05.191Z,20.54
2019-04-22T17:59:38.180Z,20.30
2019-04-22T18:02:02.119Z,20.33
2019-04-22T18:04:18.167Z,20.23
2019-04-22T18:07:12.959Z,20.19
2019-04-22T18:09:53.139Z,20.20
2019-04-22T18:12:11.849Z,19.78
2019-04-22T18:17:12.859Z,19.62
2019-04-22T18:19:35.169Z,19.52
2019-04-22T18:22:02.497Z,19.48
2019-04-22T18:24:28.059Z,19.19
2019-04-22T18:27:20.210Z,19.04
2019-04-22T18:29:41.773Z,18.86
2019-04-22T18:32:00.755Z,18.67
2019-04-22T18:34:34.271Z,18.78
2019-04-22T18:37:06.958Z,18.54
2019-04-22T18:39:42.416Z,18.56
2019-04-22T18:42:05.791Z,18.39
2019-04-22T18:44:39.842Z,18.29
2019-04-22T18:47:10.722Z,18.13
2019-04-22T18:49:37.611Z,17.95
2019-04-22T18:52:29.504Z,17.79
2019-04-22T18:55:14.627Z,17.61
2019-04-22T18:57:59.117Z,17.76
2019-04-22T19:00:18.524Z,17.74
2019-04-22T19:02:54.207Z,17.95
2019-04-22T19:05:34.717Z,18.31
2019-04-22T19:08:18.384Z,18.53
2019-04-22T19:10:51.839Z,18.64
2019-04-22T19:13:49.039Z,18.66
2019-04-22T19:15:48.861Z,18.66
2019-04-22T19:18:24.432Z,18.66
2019-04-22T19:20:52.058Z,18.59
2019-04-22T19:23:17.955Z,18.50
2019-04-22T19:25:43.788Z,18.43
2019-04-22T19:28:28.071Z,18.45
2019-04-22T19:30:48.204Z,18.43
2019-04-22T19:33:19.010Z,18.40
2019-04-22T19:35:44.326Z,18.48
2019-04-22T19:38:10.902Z,18.58
2019-04-22T19:41:00.622Z,18.43
2019-04-22T19:43:22.586Z,18.48
2019-04-22T19:45:50.631Z,18.47
2019-04-22T19:48:31.067Z,18.21
2019-04-22T19:50:58.987Z,18.26
2019-04-22T19:53:22.709Z,18.19
2019-04-22T19:55:49.733Z,18.21
2019-04-22T19:58:22.561Z,18.19
2019-04-22T20:01:09.146Z,18.13
2019-04-22T20:03:50.995Z,18.04
2019-04-22T20:06:31.558Z,17.88
2019-04-22T20:08:59.410Z,17.98
2019-04-22T20:11:30.760Z,17.76
2019-04-22T20:14:02.447Z,17.82
2019-04-22T20:16:27.272Z,17.75
2019-04-22T20:19:06.910Z,17.73
2019-04-22T20:21:28.317Z,17.64
2019-04-22T20:23:51.738Z,17.57
2019-04-22T20:26:24.780Z,17.71
2019-04-22T20:28:59.116Z,17.62
2019-04-22T20:31:33.966Z,17.59
2019-04-22T20:34:04.194Z,17.44
2019-04-22T20:36:51.879Z,17.41
2019-04-22T20:38:58.823Z,17.37
2019-04-22T20:41:26.274Z,17.44
2019-04-22T20:44:04.719Z,17.34
2019-04-22T20:46:31.253Z,17.27
2019-04-22T20:49:09.218Z,17.17
2019-04-22T20:51:43.893Z,17.16
2019-04-22T20:54:07.422Z,17.28
2019-04-22T20:56:30.086Z,17.13
2019-04-22T20:59:02.036Z,17.14
2019-04-22T21:01:36.883Z,17.01
2019-04-22T21:03:51.804Z,16.93
2019-04-22T21:06:37.034Z,17.00
2019-04-22T21:09:04.715Z,16.85
2019-04-22T21:11:34.039Z,16.86
2019-04-22T21:14:01.705Z,16.78
2019-04-22T21:16:41.384Z,16.81
2019-04-22T21:19:19.972Z,16.78
2019-04-22T21:21:37.725Z,16.90
2019-04-22T21:23:59.723Z,16.75
2019-04-22T21:26:34.896Z,16.78
2019-04-22T21:29:09.859Z,16.56
2019-04-22T21:31:41.362Z,16.65
2019-04-22T21:34:05.127Z,16.61
2019-04-22T21:36:42.241Z,16.50
2019-04-22T21:39:06.848Z,16.49
2019-04-22T21:41:36.851Z,16.48
2019-04-22T21:44:12.808Z,16.52
2019-04-22T21:46:44.322Z,16.64
2019-04-22T21:49:12.802Z,16.73
2019-04-22T21:51:43.252Z,16.62
2019-04-22T21:54:15.431Z,16.61
2019-04-22T21:57:13.390Z,16.54
2019-04-22T21:59:22.315Z,16.65
2019-04-22T22:01:55.490Z,16.58
2019-04-22T22:04:17.365Z,16.47
2019-04-22T22:06:40.424Z,16.46
2019-04-22T22:09:22.532Z,16.48
2019-04-22T22:11:51.096Z,16.30
2019-04-22T22:14:16.731Z,16.28
2019-04-22T22:16:43.559Z,16.20
2019-04-22T22:19:20.196Z,16.20
2019-04-22T22:24:23.131Z,16.02
2019-04-22T22:26:54.203Z,16.03
2019-04-22T22:29:31.821Z,16.02
2019-04-22T22:31:52.924Z,15.96
2019-04-22T22:34:24.527Z,15.92
2019-04-22T22:36:48.372Z,15.88
2019-04-22T22:39:16.432Z,15.84
2019-04-22T22:41:31.993Z,15.75
2019-04-22T22:44:10.742Z,15.73
2019-04-22T22:46:40.166Z,15.70
2019-04-22T22:49:22.984Z,15.75
2019-04-22T22:52:00.101Z,15.68
2019-04-22T22:54:23.966Z,15.66
2019-04-22T22:57:00.387Z,15.56
2019-04-22T22:59:27.655Z,15.54
2019-04-22T23:01:52.644Z,15.45
2019-04-22T23:04:29.601Z,15.40
2019-04-22T23:06:56.598Z,15.35
2019-04-22T23:09:29.073Z,15.27
2019-04-22T23:12:06.481Z,15.24
2019-04-22T23:14:28.105Z,15.23
2019-04-22T23:16:45.578Z,15.21
2019-04-22T23:19:08.910Z,15.11
2019-04-22T23:21:41.657Z,15.14
2019-04-22T23:24:27.444Z,15.11
2019-04-22T23:27:01.504Z,15.05
2019-04-22T23:29:27.000Z,15.15
2019-04-22T23:32:04.472Z,15.03
2019-04-22T23:34:38.936Z,14.94
2019-04-22T23:37:19.170Z,14.86
2019-04-22T23:40:13.973Z,14.89
2019-04-22T23:42:23.564Z,14.90
2019-04-22T23:44:56.352Z,14.92
2019-04-22T23:47:21.068Z,14.80
2019-04-22T23:49:56.637Z,14.76
2019-04-22T23:52:28.496Z,14.68
2019-04-22T23:55:10.172Z,14.64
2019-04-22T23:57:45.413Z,14.70
